Terminal Aerodrome Forecast
Issued by NWS

Home | Current Version | Previous Version | Text Only | Print | Product List | Glossary On
Versions: 1 2 3 4 5 6 7 8 9 10 11 12 13 14 15 16 17 18 19 20
000
FTUS44 KSJT 192000 AAA
TAFSOA
TAF AMD
KSOA 192043Z 1921/2018 10008KT P6SM VCTS BKN040CB
     FM200300 15005KT P6SM SCT040 BKN080
     FM200900 16004KT 6SM BR OVC007
     FM201600 16007KT P6SM OVC015=

USA.gov is the U.S. government's official web portal to all federal, state and local government web resources and services.